Terminal Aerodrome Forecast
Issued by NWS Jackson, MS

Home | Current Version | Previous Version | Text Only | Print | Product List | Glossary On
Versions: 1 2 3 4 5 6 7 8 9 10 11 12 13 14
897
FTUS44 KMEG 291120
TAFTUP
TAF
KTUP 291120Z 2912/3012 VRB03KT P6SM FEW035 SCT250
      TEMPO 2912/2913 4SM BR FEW009
     FM291500 VRB03KT P6SM SCT035 BKN250
     FM292100 30005KT P6SM SCT045 SCT250
     FM300100 00000KT P6SM FEW050=

USA.gov is the U.S. government's official web portal to all federal, state and local government web resources and services.